Time;durP1;ratioP1;P1;durP2;ratioP2;P2;SDS_P1;SDS_P2;PMS_P1;PMS_P2;Temp;Humidity;BMP_temperature;BMP_pressure;BME280_temperature;BME280_humidity;BME280_pressure;Samples;Min_cycle;Max_cycle;Signal;HPM_P1;HPM_P2
2023/04/25 00:01:04;;;;;;;15.98;8.63;;;7.00;96.90;;;;;;4999853;28;20050;-71
2023/04/25 00:03:31;;;;;;;14.77;8.77;;;7.00;97.10;;;;;;5000572;28;20022;-71
2023/04/25 00:05:58;;;;;;;17.65;8.38;;;6.90;97.30;;;;;;5006975;28;20094;-73
2023/04/25 00:08:24;;;;;;;16.20;8.82;;;6.90;97.40;;;;;;5005016;28;20025;-71
2023/04/25 00:10:50;;;;;;;13.45;7.50;;;6.90;97.70;;;;;;5005246;28;20030;-71
2023/04/25 00:13:17;;;;;;;14.23;7.15;;;6.80;97.90;;;;;;5008639;28;20104;-71
2023/04/25 00:15:42;;;;;;;11.00;7.15;;;6.80;97.90;;;;;;5002692;28;20033;-71
2023/04/25 00:18:08;;;;;;;13.57;7.55;;;6.80;98.00;;;;;;4995316;28;20033;-71
2023/04/25 00:20:35;;;;;;;14.05;6.15;;;6.80;98.20;;;;;;4999413;28;20022;-71
2023/04/25 00:23:00;;;;;;;11.63;5.88;;;6.80;98.10;;;;;;5004272;28;20033;-72
2023/04/25 00:25:26;;;;;;;11.75;5.50;;;6.80;98.10;;;;;;5004393;28;20113;-71
2023/04/25 00:27:52;;;;;;;13.85;5.65;;;6.70;98.10;;;;;;4997249;28;20125;-71
2023/04/25 00:30:17;;;;;;;22.48;5.65;;;6.60;97.90;;;;;;4996335;28;20033;-72
2023/04/25 00:32:43;;;;;;;15.38;5.20;;;6.60;97.90;;;;;;5003498;28;20038;-73
2023/04/25 00:35:09;;;;;;;29.80;5.32;;;6.60;97.80;;;;;;5003523;28;20423;-71
2023/04/25 00:37:34;;;;;;;19.77;5.10;;;6.60;97.80;;;;;;4999978;28;20034;-71
2023/04/25 00:40:00;;;;;;;16.27;4.68;;;6.60;97.80;;;;;;5003845;28;20088;-72
2023/04/25 00:42:25;;;;;;;17.98;5.53;;;6.50;97.70;;;;;;5005181;28;20049;-72
2023/04/25 00:44:52;;;;;;;17.95;4.95;;;6.60;97.90;;;;;;5004801;28;20091;-71
2023/04/25 00:47:19;;;;;;;20.73;5.55;;;6.50;97.90;;;;;;5000030;28;20499;-71
2023/04/25 00:49:44;;;;;;;20.08;5.38;;;6.50;97.90;;;;;;4999510;28;20037;-71
2023/04/25 00:52:10;;;;;;;25.08;5.25;;;6.50;97.80;;;;;;5005663;28;20087;-71
2023/04/25 00:54:36;;;;;;;18.95;5.22;;;6.50;97.60;;;;;;5002935;28;20026;-73
2023/04/25 00:57:02;;;;;;;24.20;5.65;;;6.40;97.30;;;;;;5006684;28;20034;-73
2023/04/25 00:59:30;;;;;;;20.15;5.60;;;6.40;97.40;;;;;;5001555;28;20434;-72
2023/04/25 01:01:56;;;;;;;20.00;5.78;;;6.40;97.40;;;;;;5004873;28;20458;-71
2023/04/25 01:04:21;;;;;;;30.10;6.40;;;6.40;97.40;;;;;;4999683;28;20195;-72
2023/04/25 01:06:47;;;;;;;22.25;4.95;;;6.40;97.30;;;;;;5004441;28;20063;-71
2023/04/25 01:09:13;;;;;;;25.80;5.38;;;6.30;97.10;;;;;;5003234;28;20030;-72
2023/04/25 01:11:40;;;;;;;27.17;5.10;;;6.40;97.20;;;;;;5003903;28;20041;-73
2023/04/25 01:14:06;;;;;;;20.88;5.28;;;6.30;96.80;;;;;;5004233;28;20033;-71
2023/04/25 01:16:32;;;;;;;24.60;5.65;;;6.30;96.80;;;;;;4998464;28;20331;-71
2023/04/25 01:18:59;;;;;;;22.67;5.13;;;6.30;96.70;;;;;;4999883;28;20479;-71
2023/04/25 01:21:27;;;;;;;35.03;5.50;;;6.30;96.80;;;;;;4996896;28;20150;-72
2023/04/25 01:23:53;;;;;;;22.20;5.03;;;6.20;96.40;;;;;;4997350;28;20124;-71
2023/04/25 01:26:21;;;;;;;27.50;5.85;;;6.30;96.30;;;;;;5004901;28;20106;-72
2023/04/25 01:28:46;;;;;;;39.15;6.07;;;6.20;96.10;;;;;;5001233;28;20033;-72
2023/04/25 01:31:13;;;;;;;31.73;5.65;;;6.20;95.80;;;;;;4995296;28;20108;-72
2023/04/25 01:33:39;;;;;;;26.08;5.13;;;6.20;95.80;;;;;;4994275;28;20061;-72
2023/04/25 01:36:05;;;;;;;22.35;4.53;;;6.10;95.70;;;;;;5004558;28;20437;-72
2023/04/25 01:38:31;;;;;;;25.27;6.20;;;6.10;95.30;;;;;;4999793;28;20047;-72
2023/04/25 01:40:57;;;;;;;27.13;5.40;;;6.10;95.40;;;;;;5001588;28;20120;-71
2023/04/25 01:43:23;;;;;;;27.40;6.07;;;6.10;94.50;;;;;;4999940;28;20350;-72
2023/04/25 01:45:49;;;;;;;22.85;5.38;;;6.10;94.60;;;;;;5005999;28;20423;-73
2023/04/25 01:48:15;;;;;;;21.15;4.47;;;6.00;94.60;;;;;;4991710;28;20501;-72
2023/04/25 01:50:41;;;;;;;30.98;5.38;;;6.00;94.70;;;;;;4998067;28;20037;-71
2023/04/25 01:53:09;;;;;;;22.77;4.25;;;5.90;94.30;;;;;;5004487;28;20426;-71
2023/04/25 01:55:35;;;;;;;24.27;4.93;;;5.90;94.10;;;;;;5004866;28;20677;-71
2023/04/25 01:58:02;;;;;;;24.88;4.75;;;5.80;94.50;;;;;;4999010;28;20026;-71
2023/04/25 02:00:28;;;;;;;21.40;4.07;;;5.90;94.60;;;;;;5001527;28;20126;-72
2023/04/25 02:02:57;;;;;;;23.85;5.00;;;5.80;94.20;;;;;;4997562;28;20141;-72
2023/04/25 02:05:22;;;;;;;31.67;4.85;;;5.80;93.80;;;;;;5003552;28;20048;-72
2023/04/25 02:07:48;;;;;;;24.02;4.93;;;5.80;94.00;;;;;;5001290;28;20552;-72
2023/04/25 02:10:14;;;;;;;28.35;4.70;;;5.70;94.00;;;;;;5003589;28;20026;-71
2023/04/25 02:12:40;;;;;;;22.70;4.80;;;5.70;93.70;;;;;;5000338;28;20025;-71
2023/04/25 02:15:06;;;;;;;22.40;4.55;;;5.60;93.70;;;;;;5004560;28;20320;-73
2023/04/25 02:17:32;;;;;;;27.67;5.10;;;5.50;93.80;;;;;;4998813;28;20042;-72
2023/04/25 02:19:57;;;;;;;23.15;4.82;;;5.50;93.90;;;;;;5003361;28;20047;-71
2023/04/25 02:22:23;;;;;;;25.30;5.30;;;5.50;93.80;;;;;;5000828;28;20044;-72
2023/04/25 02:24:48;;;;;;;18.48;4.68;;;5.40;93.40;;;;;;5001704;28;20053;-73
2023/04/25 02:27:14;;;;;;;23.85;4.30;;;5.40;93.20;;;;;;4994634;28;20042;-71
2023/04/25 02:29:39;;;;;;;14.48;4.03;;;5.40;93.00;;;;;;4996395;28;20522;-71
2023/04/25 02:32:05;;;;;;;26.85;4.97;;;5.40;92.20;;;;;;5002285;28;20037;-72
2023/04/25 02:34:30;;;;;;;27.10;4.70;;;5.40;92.00;;;;;;5000466;28;20189;-72
2023/04/25 02:36:56;;;;;;;22.13;5.25;;;5.40;91.60;;;;;;5000455;28;20128;-72
2023/04/25 02:39:22;;;;;;;22.75;4.50;;;5.40;91.70;;;;;;4993047;28;20087;-72
2023/04/25 02:41:47;;;;;;;23.67;5.32;;;5.40;92.10;;;;;;4997997;28;20472;-72
2023/04/25 02:44:13;;;;;;;21.63;3.67;;;5.40;91.60;;;;;;4998700;28;20026;-72
2023/04/25 02:46:38;;;;;;;14.35;3.78;;;5.40;91.50;;;;;;5005427;28;20049;-72
2023/04/25 02:49:04;;;;;;;22.27;4.18;;;5.30;91.10;;;;;;5000863;28;20034;-72
2023/04/25 02:51:30;;;;;;;16.10;3.92;;;5.40;90.90;;;;;;5004263;28;20026;-72
2023/04/25 02:53:55;;;;;;;19.20;4.03;;;5.30;90.20;;;;;;5001877;28;20037;-73
2023/04/25 02:56:21;;;;;;;19.80;3.97;;;5.40;90.10;;;;;;5004237;28;20118;-72
2023/04/25 02:58:46;;;;;;;20.70;3.97;;;5.30;89.80;;;;;;5007942;28;20351;-71
2023/04/25 03:01:12;;;;;;;27.83;4.25;;;5.30;89.50;;;;;;5005727;28;20452;-71
2023/04/25 03:03:37;;;;;;;16.67;3.97;;;5.40;90.40;;;;;;5001416;28;20101;-72
2023/04/25 03:06:03;;;;;;;28.75;4.78;;;5.30;89.90;;;;;;5006471;28;20030;-72
2023/04/25 03:08:32;;;;;;;17.85;4.05;;;5.30;90.20;;;;;;5006056;28;20018;-73
2023/04/25 03:10:58;;;;;;;16.15;3.75;;;5.30;89.80;;;;;;5008003;28;20124;-72
2023/04/25 03:13:24;;;;;;;25.35;4.35;;;5.30;89.70;;;;;;5005625;28;20522;-73
2023/04/25 03:15:50;;;;;;;20.27;4.60;;;5.20;90.30;;;;;;5002915;28;20132;-73
2023/04/25 03:18:15;;;;;;;15.90;3.70;;;5.20;90.50;;;;;;5003666;28;20184;-71
2023/04/25 03:20:41;;;;;;;18.33;4.00;;;5.10;90.40;;;;;;5005379;28;20114;-72
2023/04/25 03:23:07;;;;;;;25.85;3.97;;;5.00;90.20;;;;;;5004323;28;20414;-72
2023/04/25 03:25:32;;;;;;;18.98;4.13;;;5.00;90.30;;;;;;5006368;28;20030;-71
2023/04/25 03:27:58;;;;;;;20.70;3.97;;;4.80;91.20;;;;;;5005582;28;20045;-72
2023/04/25 03:30:23;;;;;;;24.17;4.43;;;4.80;91.60;;;;;;5008023;28;20417;-72
2023/04/25 03:32:49;;;;;;;27.45;4.78;;;4.70;91.90;;;;;;5004152;28;20037;-73
2023/04/25 03:35:14;;;;;;;20.92;4.72;;;4.70;92.60;;;;;;5003608;28;20129;-71
2023/04/25 03:37:40;;;;;;;20.48;4.28;;;4.70;92.20;;;;;;5008444;28;20037;-72
2023/04/25 03:40:06;;;;;;;28.63;4.68;;;4.70;92.20;;;;;;5004827;28;20443;-71
2023/04/25 03:42:32;;;;;;;23.45;4.28;;;4.70;92.50;;;;;;5007167;28;20065;-72
2023/04/25 03:44:57;;;;;;;23.05;4.18;;;4.70;92.60;;;;;;5005790;28;20144;-72
2023/04/25 03:47:23;;;;;;;21.10;4.07;;;4.70;92.30;;;;;;5002315;28;20300;-72
2023/04/25 03:49:51;;;;;;;17.35;4.28;;;4.70;92.50;;;;;;4998428;28;20385;-71
2023/04/25 03:52:17;;;;;;;24.23;4.13;;;4.70;92.80;;;;;;4997468;28;20383;-72
2023/04/25 03:54:42;;;;;;;21.90;4.32;;;4.70;92.50;;;;;;5004592;28;20037;-73
2023/04/25 03:57:07;;;;;;;23.00;4.18;;;4.60;92.40;;;;;;5004748;28;20033;-72
2023/04/25 03:59:33;;;;;;;17.23;3.97;;;4.60;92.60;;;;;;5007216;28;20107;-71
2023/04/25 04:01:58;;;;;;;19.85;4.18;;;4.60;92.60;;;;;;5001511;28;20095;-72
2023/04/25 04:04:24;;;;;;;17.25;4.13;;;4.40;92.60;;;;;;4999002;28;20479;-72
2023/04/25 04:06:50;;;;;;;17.25;4.05;;;4.30;92.90;;;;;;5002815;28;20048;-72
2023/04/25 04:09:16;;;;;;;25.20;4.70;;;4.40;92.80;;;;;;4999246;28;20148;-71
2023/04/25 04:11:42;;;;;;;23.95;4.25;;;4.40;92.80;;;;;;4994248;28;20139;-71
2023/04/25 04:14:07;;;;;;;15.98;4.28;;;4.40;92.90;;;;;;4992646;28;20049;-71
2023/04/25 04:16:33;;;;;;;18.40;3.75;;;4.40;92.90;;;;;;5001642;28;20048;-71
2023/04/25 04:18:58;;;;;;;15.70;3.47;;;4.50;92.60;;;;;;5006079;28;20550;-71
2023/04/25 04:21:24;;;;;;;18.20;4.63;;;4.50;92.50;;;;;;5002892;28;20026;-71
2023/04/25 04:23:50;;;;;;;23.55;4.07;;;4.60;92.00;;;;;;5002964;28;20042;-71
2023/04/25 04:26:16;;;;;;;20.35;4.00;;;4.60;92.00;;;;;;5005849;28;20436;-71
2023/04/25 04:28:43;;;;;;;22.30;3.63;;;4.70;91.90;;;;;;5000275;28;20072;-74
2023/04/25 04:31:09;;;;;;;24.00;4.40;;;4.70;91.10;;;;;;5005382;28;20026;-75
2023/04/25 04:33:36;;;;;;;16.02;3.00;;;4.70;90.30;;;;;;5007903;28;20117;-74
2023/04/25 04:36:02;;;;;;;18.42;2.97;;;4.70;90.40;;;;;;5009759;28;20052;-75
2023/04/25 04:38:28;;;;;;;21.33;3.75;;;4.70;89.60;;;;;;4997373;28;20424;-75
2023/04/25 04:40:54;;;;;;;12.75;3.63;;;4.70;89.70;;;;;;5002469;28;20113;-74
2023/04/25 04:43:19;;;;;;;21.05;3.50;;;4.70;90.50;;;;;;5005508;28;20184;-74
2023/04/25 04:45:45;;;;;;;19.05;4.05;;;4.60;90.70;;;;;;5008183;28;20037;-74
2023/04/25 04:48:13;;;;;;;15.55;3.45;;;4.50;90.50;;;;;;4998931;28;20476;-74
2023/04/25 04:50:40;;;;;;;23.77;3.80;;;4.40;90.20;;;;;;4998081;28;20030;-74
2023/04/25 04:53:05;;;;;;;21.70;3.67;;;4.30;90.30;;;;;;5005975;28;20094;-74
2023/04/25 04:55:31;;;;;;;14.80;3.40;;;4.30;90.60;;;;;;5003226;28;20041;-74
2023/04/25 04:57:56;;;;;;;13.70;3.63;;;4.40;90.80;;;;;;4997240;28;20113;-74
2023/04/25 05:00:22;;;;;;;20.08;3.78;;;4.50;91.10;;;;;;4998689;28;20600;-74
2023/04/25 05:02:47;;;;;;;14.80;3.45;;;4.60;91.00;;;;;;5000718;28;20117;-75
2023/04/25 05:05:13;;;;;;;13.02;3.80;;;4.60;90.70;;;;;;5001847;28;20033;-75
2023/04/25 05:07:38;;;;;;;25.60;3.72;;;4.60;90.50;;;;;;4998293;28;22814;-74
2023/04/25 05:10:04;;;;;;;20.10;3.67;;;4.70;90.80;;;;;;5003245;28;20394;-74
2023/04/25 05:12:30;;;;;;;14.27;3.78;;;4.70;90.50;;;;;;5005609;28;20411;-74
2023/04/25 05:14:56;;;;;;;24.17;4.28;;;4.70;90.10;;;;;;5003483;28;20096;-74
2023/04/25 05:17:21;;;;;;;11.05;2.45;;;4.70;89.80;;;;;;4993210;28;20392;-77
2023/04/25 05:19:46;;;;;;;12.38;2.70;;;4.80;90.00;;;;;;4996765;28;20342;-76
2023/04/25 05:22:12;;;;;;;13.63;3.05;;;4.80;89.20;;;;;;5006062;28;20089;-76
2023/04/25 05:24:37;;;;;;;13.98;3.25;;;4.80;89.10;;;;;;5005116;28;20151;-76
2023/04/25 05:27:03;;;;;;;19.10;3.30;;;4.90;89.30;;;;;;5008840;28;20093;-76
2023/04/25 05:29:28;;;;;;;12.65;3.08;;;4.90;88.80;;;;;;4999432;28;20447;-76
2023/04/25 05:31:54;;;;;;;16.50;3.30;;;4.90;88.80;;;;;;5003239;28;20316;-76
2023/04/25 05:34:20;;;;;;;13.07;3.28;;;4.90;88.90;;;;;;4995406;28;20144;-76
2023/04/25 05:36:48;;;;;;;14.52;3.28;;;4.90;89.20;;;;;;4998267;28;20150;-77
2023/04/25 05:39:14;;;;;;;13.18;2.63;;;4.90;88.90;;;;;;5002123;28;20030;-77
2023/04/25 05:41:40;;;;;;;19.25;3.38;;;4.90;88.80;;;;;;4999838;28;20038;-76
2023/04/25 05:44:05;;;;;;;14.93;2.83;;;4.90;88.40;;;;;;5000291;28;20366;-76
2023/04/25 05:46:31;;;;;;;20.02;3.22;;;5.00;88.80;;;;;;5004714;28;20148;-77
2023/04/25 05:48:56;;;;;;;15.52;2.60;;;4.90;88.50;;;;;;4998834;28;20046;-76
2023/04/25 05:51:22;;;;;;;16.38;3.28;;;5.00;88.10;;;;;;5009531;28;20347;-74
2023/04/25 05:53:47;;;;;;;13.63;2.83;;;5.00;88.50;;;;;;5010323;28;20070;-74
2023/04/25 05:56:13;;;;;;;15.25;2.63;;;5.10;89.00;;;;;;5008911;28;20112;-74
2023/04/25 05:58:38;;;;;;;9.80;2.67;;;5.10;87.40;;;;;;5015437;28;20165;-75
2023/04/25 06:01:04;;;;;;;13.35;2.75;;;5.10;88.30;;;;;;5016655;28;20115;-75
2023/04/25 06:03:30;;;;;;;16.50;3.10;;;5.10;87.50;;;;;;5010204;28;20152;-75
2023/04/25 06:05:56;;;;;;;12.73;2.42;;;5.20;87.80;;;;;;5009553;28;20041;-74
2023/04/25 06:08:21;;;;;;;17.02;3.17;;;5.30;88.20;;;;;;5012622;28;20030;-74
2023/04/25 06:10:47;;;;;;;14.07;2.55;;;5.30;87.30;;;;;;5011198;28;20046;-74
2023/04/25 06:13:12;;;;;;;18.55;2.75;;;5.40;88.00;;;;;;5015039;28;20022;-74
2023/04/25 06:15:38;;;;;;;17.52;3.20;;;5.50;88.40;;;;;;5017059;28;20064;-74
2023/04/25 06:18:03;;;;;;;15.50;3.53;;;5.50;87.90;;;;;;5014184;28;20030;-74
2023/04/25 06:20:29;;;;;;;13.98;2.95;;;5.50;87.10;;;;;;5012331;28;20133;-75
2023/04/25 06:22:54;;;;;;;16.50;2.60;;;5.60;87.60;;;;;;5013493;28;20046;-74
2023/04/25 06:25:20;;;;;;;13.40;3.70;;;5.50;86.90;;;;;;5014007;28;20081;-74
2023/04/25 06:27:45;;;;;;;12.20;2.90;;;5.50;86.80;;;;;;5015828;28;20030;-74
2023/04/25 06:30:15;;;;;;;11.95;2.50;;;5.60;87.80;;;;;;5013519;28;20106;-74
2023/04/25 06:32:40;;;;;;;13.70;2.50;;;5.60;87.50;;;;;;5006411;28;20088;-74
2023/04/25 06:35:06;;;;;;;11.30;2.58;;;5.60;87.10;;;;;;5009333;28;20037;-74
2023/04/25 06:37:31;;;;;;;9.80;2.35;;;5.60;86.80;;;;;;5017521;28;20164;-74
2023/04/25 06:39:57;;;;;;;10.52;2.30;;;5.60;87.20;;;;;;5015657;28;20033;-74
2023/04/25 06:42:22;;;;;;;13.27;2.47;;;5.60;86.80;;;;;;5027236;28;20026;-74
2023/04/25 06:44:48;;;;;;;10.10;2.08;;;5.50;86.30;;;;;;5016894;28;20026;-74
2023/04/25 06:47:14;;;;;;;8.57;2.15;;;5.70;86.40;;;;;;5019590;28;20469;-75
2023/04/25 06:49:40;;;;;;;12.48;2.55;;;5.90;86.80;;;;;;5011627;28;20049;-75
2023/04/25 06:52:05;;;;;;;9.43;2.85;;;6.00;85.60;;;;;;5011792;28;20109;-74
2023/04/25 06:54:30;;;;;;;8.13;2.22;;;5.90;84.90;;;;;;5019510;28;20115;-74
2023/04/25 06:56:56;;;;;;;13.23;2.13;;;6.00;85.20;;;;;;5014923;28;20113;-74
2023/04/25 06:59:22;;;;;;;11.50;2.03;;;5.90;84.40;;;;;;5018996;28;20022;-74
2023/04/25 07:01:47;;;;;;;9.93;2.17;;;6.00;84.30;;;;;;5018119;28;20101;-74
2023/04/25 07:04:13;;;;;;;9.65;1.92;;;5.90;82.80;;;;;;5014924;28;20045;-75
2023/04/25 07:06:42;;;;;;;9.73;2.10;;;6.00;83.10;;;;;;5009267;28;20057;-75
2023/04/25 07:09:09;;;;;;;8.70;2.50;;;6.00;84.00;;;;;;5017640;28;20407;-74
2023/04/25 07:11:35;;;;;;;7.20;1.85;;;6.10;83.20;;;;;;5017698;28;20485;-74
2023/04/25 07:14:01;;;;;;;8.20;1.98;;;6.10;83.80;;;;;;5013253;28;20034;-75
2023/04/25 07:16:26;;;;;;;7.85;1.58;;;6.00;84.80;;;;;;5016969;28;20129;-74
2023/04/25 07:18:52;;;;;;;9.57;1.52;;;5.80;85.20;;;;;;5008133;28;20390;-74
2023/04/25 07:21:17;;;;;;;7.50;1.70;;;5.50;86.60;;;;;;5019772;28;20037;-74
2023/04/25 07:23:43;;;;;;;6.38;1.70;;;5.50;88.10;;;;;;5018492;28;20064;-74
2023/04/25 07:26:08;;;;;;;7.72;1.75;;;5.50;88.30;;;;;;5019406;28;20366;-74
2023/04/25 07:28:34;;;;;;;8.57;1.88;;;5.50;88.00;;;;;;5015306;28;20130;-74
2023/04/25 07:30:59;;;;;;;7.50;1.35;;;5.60;87.90;;;;;;5009868;28;20121;-75
2023/04/25 07:33:25;;;;;;;5.05;1.65;;;5.60;86.60;;;;;;5010002;28;20542;-74
2023/04/25 07:35:50;;;;;;;6.85;1.65;;;5.60;87.30;;;;;;5020024;28;20419;-75
2023/04/25 07:38:16;;;;;;;9.68;1.90;;;5.60;87.80;;;;;;5018221;28;20026;-74
2023/04/25 07:40:41;;;;;;;13.00;2.05;;;5.60;88.60;;;;;;5013739;28;20037;-75
2023/04/25 07:43:07;;;;;;;11.30;1.95;;;5.30;89.30;;;;;;5018217;28;20026;-74
2023/04/25 07:45:32;;;;;;;19.55;2.45;;;5.30;90.30;;;;;;5016967;28;20033;-74
2023/04/25 07:47:58;;;;;;;7.20;1.60;;;5.10;89.50;;;;;;5008888;28;20497;-75
2023/04/25 07:50:23;;;;;;;6.88;1.13;;;4.80;88.80;;;;;;5011225;28;20037;-74
2023/04/25 07:52:49;;;;;;;9.63;1.73;;;4.70;89.60;;;;;;5016623;28;20121;-74
2023/04/25 07:55:14;;;;;;;9.15;2.00;;;4.80;88.60;;;;;;5018954;28;20038;-74
2023/04/25 07:57:40;;;;;;;8.82;1.33;;;5.10;88.10;;;;;;5016320;28;20025;-74
2023/04/25 08:00:09;;;;;;;5.75;1.55;;;5.30;88.80;;;;;;5021090;28;20025;-74
2023/04/25 08:02:35;;;;;;;6.10;1.50;;;5.50;88.50;;;;;;5017026;28;20022;-74
2023/04/25 08:05:03;;;;;;;3.97;1.63;;;5.60;87.40;;;;;;5016990;28;20453;-75
2023/04/25 08:07:29;;;;;;;8.98;1.60;;;5.60;87.80;;;;;;5017615;28;20088;-75
2023/04/25 08:09:54;;;;;;;6.30;1.52;;;5.60;87.70;;;;;;5019758;28;20410;-74
2023/04/25 08:12:20;;;;;;;10.82;1.92;;;5.60;88.40;;;;;;5016660;28;20057;-75
2023/04/25 08:14:45;;;;;;;9.05;2.28;;;6.00;88.40;;;;;;5013079;28;20105;-75
2023/04/25 08:17:11;;;;;;;8.73;2.10;;;6.30;87.70;;;;;;5018165;28;20078;-75
2023/04/25 08:19:37;;;;;;;14.30;2.03;;;6.90;88.10;;;;;;5013185;28;20041;-75
2023/04/25 08:22:03;;;;;;;10.63;1.88;;;7.30;86.70;;;;;;5011226;28;20033;-75
2023/04/25 08:24:28;;;;;;;8.88;2.15;;;7.50;83.50;;;;;;5017581;28;20044;-75
2023/04/25 08:26:54;;;;;;;11.80;2.45;;;7.70;84.40;;;;;;5014152;28;20022;-75
2023/04/25 08:29:19;;;;;;;8.10;2.20;;;7.50;84.40;;;;;;5010720;28;20048;-75
2023/04/25 08:31:45;;;;;;;9.77;2.20;;;7.20;84.30;;;;;;5015370;28;20335;-74
2023/04/25 08:34:11;;;;;;;11.68;2.88;;;7.00;85.30;;;;;;5015933;28;20034;-75
2023/04/25 08:36:37;;;;;;;11.80;2.55;;;6.50;86.90;;;;;;5017017;28;20029;-74
2023/04/25 08:39:02;;;;;;;7.00;1.67;;;6.10;87.20;;;;;;5015346;28;20042;-75
2023/04/25 08:41:28;;;;;;;6.15;1.52;;;5.30;88.30;;;;;;5012493;28;20185;-74
2023/04/25 08:43:56;;;;;;;11.07;1.80;;;5.10;88.90;;;;;;5023520;28;20034;-74
2023/04/25 08:46:23;;;;;;;6.55;1.33;;;5.20;89.40;;;;;;5027489;28;20030;-75
2023/04/25 08:48:50;;;;;;;6.03;1.60;;;5.40;89.30;;;;;;5012337;28;20037;-75
2023/04/25 08:51:25;;;;;;;9.93;2.25;;;5.40;88.60;;;;;;5014365;28;20105;-74
2023/04/25 08:53:52;;;;;;;4.55;1.10;;;5.50;87.80;;;;;;5008703;28;20431;-74
2023/04/25 08:56:20;;;;;;;7.35;1.40;;;5.70;87.50;;;;;;5012370;28;20034;-75
2023/04/25 08:58:47;;;;;;;4.97;1.30;;;6.00;88.00;;;;;;5014458;28;20092;-74
2023/04/25 09:01:13;;;;;;;7.45;1.52;;;6.20;88.40;;;;;;4995443;28;20141;-74
2023/04/25 09:03:38;;;;;;;5.82;1.70;;;6.20;87.00;;;;;;5004813;28;20073;-74
2023/04/25 09:06:04;;;;;;;8.52;1.73;;;6.40;87.70;;;;;;5011903;28;20041;-75
2023/04/25 09:08:30;;;;;;;1.75;0.82;;;6.40;86.50;;;;;;5011191;28;20100;-75
2023/04/25 09:10:55;;;;;;;9.65;1.23;;;6.50;85.80;;;;;;5011540;28;20033;-75
2023/04/25 09:13:26;;;;;;;8.73;1.48;;;6.70;86.30;;;;;;5012483;28;20088;-74
2023/04/25 09:15:54;;;;;;;5.72;1.30;;;6.70;85.70;;;;;;5015443;28;20175;-75
2023/04/25 09:18:25;;;;;;;4.57;1.38;;;7.20;85.80;;;;;;5003105;28;20061;-75
2023/04/25 09:20:51;;;;;;;;;;;7.50;84.70;;;;;;5013406;28;20042;-74
2023/04/25 09:23:20;;;;;;;10.18;1.40;;;7.30;83.80;;;;;;5014492;28;19927;-74
2023/04/25 09:25:51;;;;;;;5.05;1.52;;;8.00;84.50;;;;;;5007637;28;20030;-74
2023/04/25 09:28:22;;;;;;;6.88;1.42;;;8.30;84.10;;;;;;5001774;28;20105;-75
2023/04/25 09:30:47;;;;;;;;;;;8.10;80.80;;;;;;5011862;28;20098;-74
2023/04/25 09:33:13;;;;;;;6.03;1.48;;;8.60;80.50;;;;;;5002973;28;19906;-74
2023/04/25 09:35:40;;;;;;;5.15;1.00;;;8.50;79.80;;;;;;5012799;28;20053;-75
2023/04/25 09:38:12;;;;;;;8.00;1.58;;;8.50;80.50;;;;;;5007744;28;20209;-75
2023/04/25 09:40:40;;;;;;;;;;;8.60;79.50;;;;;;5013491;28;20044;-74
2023/04/25 09:43:18;;;;;;;10.35;1.60;;;8.30;79.90;;;;;;4999172;28;20004;-74
2023/04/25 09:45:47;;;;;;;8.52;1.77;;;8.50;80.60;;;;;;5009412;28;20034;-75
2023/04/25 09:48:17;;;;;;;9.48;1.95;;;8.60;80.80;;;;;;5005962;28;20445;-75
2023/04/25 09:50:42;;;;;;;13.77;1.77;;;8.80;80.90;;;;;;5000839;28;20133;-74
2023/04/25 09:53:08;;;;;;;4.78;1.45;;;8.40;79.30;;;;;;5012141;28;20164;-75
2023/04/25 09:55:35;;;;;;;12.40;2.05;;;8.30;80.20;;;;;;4998840;28;20034;-75
2023/04/25 09:58:05;;;;;;;9.75;1.70;;;8.10;79.90;;;;;;5008666;28;20607;-75
2023/04/25 10:00:32;;;;;;;6.22;1.23;;;7.00;84.60;;;;;;5017762;28;20426;-74
2023/04/25 10:03:03;;;;;;;2.65;0.88;;;6.20;89.20;;;;;;5007921;28;20046;-74
2023/04/25 10:05:31;;;;;;;2.95;1.00;;;5.60;91.10;;;;;;5032226;28;20107;-75
2023/04/25 10:07:59;;;;;;;3.20;0.95;;;5.60;90.60;;;;;;5040665;28;20029;-74
2023/04/25 10:10:27;;;;;;;3.45;1.00;;;5.90;89.50;;;;;;5019253;28;20026;-75
2023/04/25 10:12:54;;;;;;;4.35;1.00;;;6.10;87.10;;;;;;5011933;28;20025;-74
2023/04/25 10:15:19;;;;;;;8.88;1.40;;;6.60;86.50;;;;;;5027989;28;20075;-75
2023/04/25 10:17:45;;;;;;;5.53;1.45;;;6.90;83.70;;;;;;5033677;28;20026;-75
2023/04/25 10:20:11;;;;;;;8.93;1.77;;;7.10;84.00;;;;;;5011967;28;20026;-75
2023/04/25 10:22:42;;;;;;;6.47;1.25;;;7.20;83.00;;;;;;5024156;28;20026;-75
2023/04/25 10:25:08;;;;;;;7.68;1.33;;;7.90;84.20;;;;;;5028571;28;20176;-76
2023/04/25 10:27:34;;;;;;;5.55;1.27;;;8.50;82.20;;;;;;5009783;28;20462;-73
2023/04/25 10:30:10;;;;;;;4.60;1.20;;;8.60;79.10;;;;;;5009269;28;20030;-73
2023/04/25 10:32:36;;;;;;;3.53;0.88;;;8.70;75.50;;;;;;5014186;28;20034;-72
2023/04/25 10:35:23;;;;;;;9.43;1.58;;;8.80;74.70;;;;;;5013950;28;20057;-73
2023/04/25 10:37:58;;;;;;;4.50;1.58;;;9.20;77.80;;;;;;5014597;28;20057;-74
2023/04/25 10:40:24;;;;;;;8.73;1.20;;;9.00;74.40;;;;;;5018889;28;20076;-73
2023/04/25 10:42:53;;;;;;;5.13;1.17;;;9.40;73.80;;;;;;5018137;28;20101;-74
2023/04/25 10:45:19;;;;;;;5.38;0.98;;;9.50;72.50;;;;;;5019849;28;20081;-74
2023/04/25 10:47:45;;;;;;;8.50;1.50;;;9.70;70.10;;;;;;5024452;28;20037;-75
2023/04/25 10:50:11;;;;;;;7.35;1.50;;;9.80;70.20;;;;;;5018876;28;20110;-74
2023/04/25 10:52:40;;;;;;;7.63;1.30;;;10.10;67.80;;;;;;5018694;28;20133;-74
2023/04/25 10:55:06;;;;;;;9.57;2.00;;;10.50;65.30;;;;;;5009509;28;20037;-74
2023/04/25 10:57:41;;;;;;;9.98;1.40;;;11.00;68.30;;;;;;5017467;28;20032;-73
2023/04/25 11:00:18;;;;;;;6.07;1.10;;;10.90;67.20;;;;;;5003850;28;20034;-75
2023/04/25 11:02:50;;;;;;;5.25;1.40;;;9.30;71.60;;;;;;4999265;28;20103;-75
2023/04/25 11:05:22;;;;;;;6.55;1.40;;;7.90;75.10;;;;;;5014538;28;20375;-74
2023/04/25 11:07:54;;;;;;;6.93;1.40;;;7.70;79.80;;;;;;5002127;28;20038;-73
2023/04/25 11:10:20;;;;;;;9.07;1.48;;;7.10;79.30;;;;;;5006959;28;20050;-75
2023/04/25 11:12:47;;;;;;;9.02;1.67;;;6.90;79.60;;;;;;5014743;28;20029;-75
2023/04/25 11:15:13;;;;;;;7.20;1.38;;;6.80;80.40;;;;;;5010120;28;20056;-75
2023/04/25 11:17:40;;;;;;;10.18;1.35;;;6.80;78.00;;;;;;5001521;28;20397;-75
2023/04/25 11:20:11;;;;;;;9.65;1.50;;;7.00;78.00;;;;;;5003318;28;20068;-73
2023/04/25 11:22:37;;;;;;;8.68;1.50;;;7.30;77.40;;;;;;5006563;28;20107;-75
2023/04/25 11:25:10;;;;;;;8.07;1.23;;;7.70;76.20;;;;;;5009713;28;20348;-76
2023/04/25 11:27:57;;;;;;;8.60;1.58;;;8.20;74.80;;;;;;4996170;28;20397;-75
2023/04/25 11:30:23;;;;;;;9.15;1.75;;;8.50;74.40;;;;;;4996415;28;20430;-76
2023/04/25 11:32:49;;;;;;;7.20;1.33;;;8.30;71.20;;;;;;5002475;28;20084;-74
2023/04/25 11:35:15;;;;;;;6.22;1.25;;;8.50;71.90;;;;;;5009017;28;20120;-76
2023/04/25 11:37:42;;;;;;;11.80;1.67;;;8.90;72.30;;;;;;5000895;28;20105;-76
2023/04/25 11:40:09;;;;;;;10.20;1.48;;;9.10;70.10;;;;;;5003833;28;20103;-77
2023/04/25 11:42:42;;;;;;;6.22;1.10;;;9.50;67.30;;;;;;4999070;28;20445;-76
2023/04/25 11:45:09;;;;;;;5.85;1.05;;;10.00;68.30;;;;;;4999597;28;20411;-76
2023/04/25 11:47:35;;;;;;;6.95;1.45;;;10.00;65.00;;;;;;4999309;28;20443;-76
2023/04/25 11:50:05;;;;;;;8.32;1.27;;;10.30;64.20;;;;;;4989395;28;20089;-76
2023/04/25 11:52:42;;;;;;;5.20;1.20;;;10.60;61.20;;;;;;4997874;28;20120;-75
2023/04/25 11:55:17;;;;;;;5.60;1.10;;;10.00;63.40;;;;;;5004468;28;20074;-75
2023/04/25 11:57:44;;;;;;;4.97;1.15;;;9.50;64.80;;;;;;4997136;28;20038;-75
2023/04/25 12:00:16;;;;;;;5.75;1.20;;;9.00;66.30;;;;;;5000154;28;20026;-75
2023/04/25 12:02:43;;;;;;;7.63;1.55;;;8.70;69.90;;;;;;5001652;28;20098;-75
2023/04/25 12:05:10;;;;;;;5.13;1.33;;;8.20;72.40;;;;;;5021033;28;20033;-74
2023/04/25 12:07:40;;;;;;;6.47;1.65;;;7.60;76.20;;;;;;5004705;28;20068;-75
2023/04/25 12:10:08;;;;;;;6.17;0.90;;;7.60;77.20;;;;;;5004003;28;20030;-75
2023/04/25 12:12:36;;;;;;;8.20;1.27;;;7.80;74.60;;;;;;5004470;28;20289;-75
2023/04/25 12:15:15;;;;;;;5.93;1.08;;;8.00;72.30;;;;;;5003902;28;20129;-75
2023/04/25 12:17:41;;;;;;;6.75;1.65;;;8.30;72.70;;;;;;5003429;28;20052;-74
2023/04/25 12:20:12;;;;;;;3.53;1.02;;;8.40;69.20;;;;;;4997873;28;20117;-74
2023/04/25 12:22:40;;;;;;;;;;;9.20;63.90;;;;;;5004755;28;20034;-74
2023/04/25 12:25:07;;;;;;;6.88;1.10;;;9.70;63.20;;;;;;5008086;28;19933;-74
2023/04/25 12:27:33;;;;;;;4.65;1.00;;;10.20;60.80;;;;;;5005886;28;20099;-73
2023/04/25 12:29:59;;;;;;;9.70;1.63;;;10.10;61.30;;;;;;5006749;28;20113;-73
2023/04/25 12:32:25;;;;;;;5.80;1.45;;;10.40;61.50;;;;;;5002825;28;20044;-74
2023/04/25 12:34:50;;;;;;;7.60;1.23;;;9.90;60.60;;;;;;5005795;28;20125;-74
2023/04/25 12:37:16;;;;;;;5.50;0.95;;;10.10;60.80;;;;;;5005023;28;20069;-74
2023/04/25 12:39:42;;;;;;;7.00;1.33;;;9.60;62.40;;;;;;5008002;28;20116;-74
2023/04/25 12:42:13;;;;;;;6.63;1.48;;;9.10;67.40;;;;;;5005901;28;20136;-75
2023/04/25 12:44:38;;;;;;;4.97;1.20;;;8.00;72.60;;;;;;5002358;28;20038;-74
2023/04/25 12:47:05;;;;;;;8.43;1.33;;;7.40;76.70;;;;;;4999710;28;20029;-74